Lucky Trader — HOGJ — position and weather

sailwx.info

Track history (hours):
 
Tides and Currents Weather Stations Pressure Air Temp Water Temp Dewpoint Dewpoint Depression Visibility Wind Speed Wind Dir Waves Ship Positions

Lucky Trader

Last reported at 2017-Dec-13 19:16 UTC. Time now 2017-Dec-18 15:00 UTC.
Position N 46°33' E 030°58'.

Length 154 m; draft 6.1 m.

Type: Cargo ship. MMSI: 374533000.

Date/timePositionNaut miles runAvg speedWind from/ knotsBaromVisibWave heightAir tempDewpointWater temp
2017-Dec-13 19:16N 46°33' E 030°58'3 7.5
2017-Dec-13 18:54N 46°31' E 030°57'4 9.4
2017-Dec-13 18:26N 46°26' E 030°57'127 7.3
2017-Dec-13 00:58N 44°26' E 029°57'612.3
2017-Dec-13 00:30N 44°21' E 029°53'612.3
2017-Dec-13 00:00N 44°16' E 029°48'612.6
2017-Dec-12 23:30N 44°11' E 029°43'612.6
2017-Dec-12 23:00N 44°06' E 029°38'612.6
2017-Dec-12 22:30N 44°01' E 029°33'612.4
2017-Dec-12 22:01N 43°56' E 029°29'612.4
2017-Dec-12 21:30N 43°50' E 029°24'612.4
2017-Dec-12 21:00N 43°45' E 029°19'612.4
2017-Dec-12 20:30N 43°40' E 029°15'612.4
2017-Dec-12 20:00N 43°35' E 029°10'612.4
2017-Dec-12 19:30N 43°29' E 029°05'612.4
2017-Dec-12 19:00N 43°24' E 029°01'612.6
2017-Dec-12 18:30N 43°19' E 028°57'711.1
2017-Dec-12 17:51N 43°14' E 028°50'  
2017-Dec-03 20:08N 37°58' E 024°39'412.2
2017-Dec-03 19:50N 37°55' E 024°37'412.2
2017-Dec-03 19:30N 37°53' E 024°33'  
Track history (hours):
 
Tides and Currents Weather Stations Pressure Air Temp Water Temp Dewpoint Dewpoint Depression Visibility Wind Speed Wind Dir Waves Ship Positions

Lucky Trader

Last reported at 2017-Dec-13 19:16 UTC. Time now 2017-Dec-18 15:00 UTC.
Position N 46°33' E 030°58'.

Length 154 m; draft 6.1 m.

Type: Cargo ship. MMSI: 374533000.

Date/timePositionNaut miles runAvg speedWind from/ knotsBaromVisibWave heightAir tempDewpointWater temp
2017-Dec-13 19:16N 46°33' E 030°58'3 7.5
2017-Dec-13 18:54N 46°31' E 030°57'4 9.4
2017-Dec-13 18:26N 46°26' E 030°57'127 7.3
2017-Dec-13 00:58N 44°26' E 029°57'612.3
2017-Dec-13 00:30N 44°21' E 029°53'612.3
2017-Dec-13 00:00N 44°16' E 029°48'612.6
2017-Dec-12 23:30N 44°11' E 029°43'612.6
2017-Dec-12 23:00N 44°06' E 029°38'612.6
2017-Dec-12 22:30N 44°01' E 029°33'612.4
2017-Dec-12 22:01N 43°56' E 029°29'612.4
2017-Dec-12 21:30N 43°50' E 029°24'612.4
2017-Dec-12 21:00N 43°45' E 029°19'612.4
2017-Dec-12 20:30N 43°40' E 029°15'612.4
2017-Dec-12 20:00N 43°35' E 029°10'612.4
2017-Dec-12 19:30N 43°29' E 029°05'612.4
2017-Dec-12 19:00N 43°24' E 029°01'612.6
2017-Dec-12 18:30N 43°19' E 028°57'711.1
2017-Dec-12 17:51N 43°14' E 028°50'  
2017-Dec-03 20:08N 37°58' E 024°39'412.2
2017-Dec-03 19:50N 37°55' E 024°37'412.2
2017-Dec-03 19:30N 37°53' E 024°33'  

Dump ship's entire track history